createdAt,value
2022-11-02T00:00:48.896Z,2.20
2022-11-02T00:03:16.800Z,1.77
2022-11-02T00:05:44.723Z,1.80
2022-11-02T00:08:12.592Z,1.60
2022-11-02T00:10:40.487Z,2.00
2022-11-02T00:13:08.379Z,2.60
2022-11-02T00:15:37.638Z,2.07
2022-11-02T00:18:06.775Z,2.03
2022-11-02T00:20:35.140Z,1.90
2022-11-02T00:23:03.279Z,1.80
2022-11-02T00:25:31.399Z,2.80
2022-11-02T00:27:59.324Z,1.97
2022-11-02T00:30:27.187Z,1.73
2022-11-02T00:32:57.087Z,1.60
2022-11-02T00:35:24.977Z,1.70
2022-11-02T00:37:52.829Z,1.70
2022-11-02T00:40:20.852Z,1.70
2022-11-02T00:42:48.844Z,1.70
2022-11-02T00:45:17.306Z,1.80
2022-11-02T00:47:45.175Z,2.00
2022-11-02T00:50:14.466Z,1.70
2022-11-02T00:52:42.557Z,2.27
2022-11-02T00:55:11.342Z,1.23
2022-11-02T00:57:39.856Z,1.83
2022-11-02T01:00:09.992Z,1.80
2022-11-02T01:02:37.981Z,1.97
2022-11-02T01:05:06.984Z,3.13
2022-11-02T01:07:37.557Z,2.17
2022-11-02T01:10:06.103Z,1.97
2022-11-02T01:12:34.019Z,2.07
2022-11-02T01:15:03.407Z,2.07
2022-11-02T01:17:31.319Z,1.77
2022-11-02T01:19:59.327Z,1.87
2022-11-02T01:22:27.211Z,1.67
2022-11-02T01:24:56.608Z,2.27
2022-11-02T01:27:24.480Z,1.97
2022-11-02T01:29:52.372Z,2.50
2022-11-02T01:32:20.293Z,1.87
2022-11-02T01:34:48.154Z,2.30
2022-11-02T01:37:16.089Z,2.40
2022-11-02T01:39:43.951Z,1.83
2022-11-02T01:42:19.923Z,1.93
2022-11-02T01:44:47.832Z,2.07
2022-11-02T01:47:19.535Z,1.90
2022-11-02T01:49:48.961Z,1.80
2022-11-02T01:52:18.276Z,1.60
2022-11-02T01:54:48.746Z,1.80
2022-11-02T01:57:19.050Z,1.43
2022-11-02T01:59:50.935Z,0.90
2022-11-02T02:02:19.747Z,1.63
2022-11-02T02:04:50.464Z,1.87
2022-11-02T02:07:18.374Z,2.07
2022-11-02T02:09:48.760Z,1.40
2022-11-02T02:12:19.289Z,1.33
2022-11-02T02:14:48.552Z,1.00
2022-11-02T02:17:36.159Z,1.17
2022-11-02T02:20:06.432Z,1.07
2022-11-02T02:22:48.219Z,1.63
2022-11-02T02:25:45.699Z,1.00
2022-11-02T02:28:19.732Z,1.40
2022-11-02T02:30:50.182Z,1.93
2022-11-02T02:33:21.539Z,1.40
2022-11-02T02:35:51.239Z,1.40
2022-11-02T02:38:22.298Z,1.57
2022-11-02T02:40:52.318Z,1.50
2022-11-02T02:43:23.193Z,1.10
2022-11-02T02:45:52.466Z,1.13
2022-11-02T02:48:21.248Z,1.30
2022-11-02T02:50:49.939Z,1.30
2022-11-02T02:53:18.507Z,1.50
2022-11-02T02:55:47.443Z,1.27
2022-11-02T02:58:18.260Z,1.60
2022-11-02T03:00:47.475Z,1.50
2022-11-02T03:03:18.541Z,1.40
2022-11-02T03:05:56.583Z,1.60
2022-11-02T03:08:24.440Z,1.40
2022-11-02T03:10:54.637Z,1.37
2022-11-02T03:13:33.857Z,2.50
2022-11-02T03:16:05.577Z,1.53
2022-11-02T03:18:37.385Z,1.43
2022-11-02T03:21:08.207Z,1.57
2022-11-02T03:23:38.383Z,1.20
2022-11-02T03:26:07.786Z,1.67
2022-11-02T03:28:43.511Z,1.57
2022-11-02T03:31:14.534Z,1.23
2022-11-02T03:33:45.099Z,1.57
2022-11-02T03:36:14.187Z,1.60
2022-11-02T03:38:43.947Z,1.43
2022-11-02T03:41:12.075Z,1.80
2022-11-02T03:43:40.135Z,1.70
2022-11-02T03:46:08.601Z,1.70
2022-11-02T03:48:39.848Z,1.80
2022-11-02T03:51:10.129Z,1.77
2022-11-02T03:53:42.582Z,1.83
2022-11-02T03:56:12.968Z,1.97
2022-11-02T03:58:40.809Z,1.50
2022-11-02T04:01:09.322Z,2.07
2022-11-02T04:03:40.082Z,1.93
2022-11-02T04:06:08.339Z,2.20
2022-11-02T04:08:38.055Z,1.83
2022-11-02T04:11:23.859Z,2.00
2022-11-02T04:14:09.336Z,2.27
2022-11-02T04:16:37.230Z,2.27
2022-11-02T04:19:24.241Z,2.20
2022-11-02T04:22:09.637Z,2.40
2022-11-02T04:24:54.700Z,2.37
2022-11-02T04:27:22.615Z,2.20
2022-11-02T04:29:50.501Z,2.40
2022-11-02T04:32:38.929Z,2.30
2022-11-02T04:35:08.583Z,2.20
2022-11-02T04:37:57.519Z,1.83
2022-11-02T04:40:25.435Z,1.60
2022-11-02T04:42:53.408Z,1.40
2022-11-02T04:45:21.274Z,1.60
2022-11-02T04:47:49.170Z,2.50
2022-11-02T04:50:18.423Z,1.70
2022-11-02T04:52:46.310Z,1.87
2022-11-02T04:55:14.192Z,1.93
2022-11-02T04:57:45.964Z,1.90
2022-11-02T05:00:15.547Z,1.60
2022-11-02T05:02:43.614Z,1.70
2022-11-02T05:05:12.556Z,1.77
2022-11-02T05:07:41.823Z,1.70
2022-11-02T05:10:10.004Z,2.17
2022-11-02T05:12:37.898Z,1.80
2022-11-02T05:15:06.515Z,1.80
2022-11-02T05:17:34.447Z,1.70
2022-11-02T05:20:02.472Z,2.10
2022-11-02T05:22:30.376Z,1.90
2022-11-02T05:24:59.634Z,1.77
2022-11-02T05:27:27.518Z,1.93
2022-11-02T05:29:55.393Z,1.90
2022-11-02T05:32:23.285Z,1.70
2022-11-02T05:34:51.224Z,1.73
2022-11-02T05:37:19.108Z,1.60
2022-11-02T05:39:49.524Z,2.00
2022-11-02T05:42:19.837Z,2.00
2022-11-02T05:44:47.655Z,2.03
2022-11-02T05:47:15.580Z,2.10
2022-11-02T05:49:43.442Z,1.80
2022-11-02T05:52:11.569Z,1.70
2022-11-02T05:54:39.475Z,2.40
2022-11-02T05:57:07.403Z,1.93
2022-11-02T05:59:36.656Z,2.00
2022-11-02T06:02:04.611Z,2.00
2022-11-02T06:04:32.516Z,1.90
2022-11-02T06:07:00.399Z,1.80
2022-11-02T06:09:28.295Z,1.73
2022-11-02T06:11:57.180Z,1.73
2022-11-02T06:14:25.051Z,1.70
2022-11-02T06:16:54.382Z,1.53
2022-11-02T06:19:23.406Z,2.07
2022-11-02T06:21:51.281Z,1.90
2022-11-02T06:24:19.370Z,2.30
2022-11-02T06:26:47.267Z,2.10
2022-11-02T06:29:15.191Z,2.03
2022-11-02T06:31:43.143Z,1.87
2022-11-02T06:34:12.471Z,1.93
2022-11-02T06:36:40.395Z,1.97
2022-11-02T06:39:08.312Z,2.07
2022-11-02T06:41:36.261Z,2.10
2022-11-02T06:44:04.203Z,1.67
2022-11-02T06:46:32.387Z,1.80
2022-11-02T06:49:00.411Z,2.17
2022-11-02T06:51:29.853Z,2.10
2022-11-02T06:53:57.832Z,2.20
2022-11-02T06:56:25.812Z,1.80
2022-11-02T06:58:53.716Z,1.97
2022-11-02T07:01:21.702Z,2.23
2022-11-02T07:03:49.751Z,2.10
2022-11-02T07:06:17.668Z,2.13
2022-11-02T07:08:46.950Z,1.60
2022-11-02T07:11:16.323Z,2.10
2022-11-02T07:13:44.305Z,2.00
2022-11-02T07:16:12.460Z,1.97
2022-11-02T07:18:40.423Z,1.87
2022-11-02T07:21:10.573Z,1.97
2022-11-02T07:23:38.545Z,2.30
2022-11-02T07:26:07.911Z,2.40
2022-11-02T07:28:38.126Z,1.90
2022-11-02T07:31:06.551Z,2.20
2022-11-02T07:33:34.448Z,2.17
2022-11-02T07:36:04.072Z,1.67
2022-11-02T07:38:31.950Z,2.10
2022-11-02T07:40:59.804Z,2.07
2022-11-02T07:43:29.135Z,2.63
2022-11-02T07:45:57.299Z,2.47
2022-11-02T07:48:25.165Z,2.37
2022-11-02T07:50:53.439Z,1.67
2022-11-02T07:53:21.323Z,2.07
2022-11-02T07:55:49.201Z,2.10
2022-11-02T07:58:17.160Z,2.00
2022-11-02T08:00:46.412Z,2.07
2022-11-02T08:03:14.873Z,2.03
2022-11-02T08:05:43.256Z,2.13
2022-11-02T08:08:12.924Z,2.63
2022-11-02T08:10:40.853Z,2.27
2022-11-02T08:13:08.871Z,2.40
2022-11-02T08:15:36.837Z,2.20
2022-11-02T08:18:07.218Z,2.60
2022-11-02T08:20:35.858Z,2.10
2022-11-02T08:23:04.039Z,2.30
2022-11-02T08:25:31.987Z,1.83
2022-11-02T08:28:00.051Z,2.50
2022-11-02T08:30:28.129Z,2.40
2022-11-02T08:32:57.204Z,2.20
2022-11-02T08:35:26.762Z,2.43
2022-11-02T08:37:55.643Z,2.17
2022-11-02T08:40:23.705Z,2.60
2022-11-02T08:42:56.328Z,2.20
2022-11-02T08:45:24.291Z,2.07
2022-11-02T08:47:52.163Z,2.10
2022-11-02T08:50:20.075Z,2.90
2022-11-02T08:52:49.308Z,2.70
2022-11-02T08:55:17.198Z,2.30
2022-11-02T08:57:48.185Z,2.00
2022-11-02T09:00:16.636Z,2.47
2022-11-02T09:02:44.778Z,2.80
2022-11-02T09:05:12.714Z,2.37
2022-11-02T09:07:40.647Z,3.53
2022-11-02T09:10:10.963Z,2.80
2022-11-02T09:12:38.814Z,2.57
2022-11-02T09:15:07.607Z,2.57
2022-11-02T09:17:35.553Z,2.63
2022-11-02T09:20:03.434Z,2.73
2022-11-02T09:22:31.813Z,2.93
2022-11-02T09:24:59.642Z,7.53
2022-11-02T09:27:30.178Z,2.87
2022-11-02T09:29:58.099Z,2.10
2022-11-02T09:32:26.127Z,2.53
2022-11-02T09:34:54.145Z,2.37
2022-11-02T09:37:22.021Z,2.30
2022-11-02T09:39:49.927Z,3.07
2022-11-02T09:42:20.100Z,1.63
2022-11-02T09:44:51.164Z,2.67
2022-11-02T09:50:10.826Z,3.47
2022-11-02T09:52:39.331Z,3.20
2022-11-02T09:55:11.739Z,1.73
2022-11-02T09:57:39.786Z,2.97
2022-11-02T10:00:13.587Z,2.90
2022-11-02T10:02:47.952Z,2.87
2022-11-02T10:05:25.426Z,2.13
2022-11-02T10:08:20.773Z,3.50
2022-11-02T10:10:55.190Z,3.33
2022-11-02T10:13:27.457Z,3.63
2022-11-02T10:15:58.077Z,2.17
2022-11-02T10:18:27.613Z,3.37
2022-11-02T10:20:57.201Z,3.13
2022-11-02T10:23:26.873Z,2.90
2022-11-02T10:25:56.713Z,2.00
2022-11-02T10:28:27.154Z,2.80
2022-11-02T10:30:56.996Z,2.27
2022-11-02T10:33:27.277Z,2.50
2022-11-02T10:36:19.513Z,2.70
2022-11-02T10:38:55.220Z,3.07
2022-11-02T10:41:45.801Z,2.50
2022-11-02T10:44:26.024Z,2.53
2022-11-02T10:47:00.691Z,1.83
2022-11-02T10:49:53.308Z,1.57
2022-11-02T10:52:21.201Z,2.60
2022-11-02T10:54:51.032Z,2.43
2022-11-02T10:57:21.687Z,2.57
2022-11-02T11:00:10.660Z,2.70
2022-11-02T11:02:39.952Z,2.53
2022-11-02T11:05:13.421Z,1.70
2022-11-02T11:07:44.446Z,2.63
2022-11-02T11:10:15.293Z,2.83
2022-11-02T11:12:43.295Z,2.60
2022-11-02T11:21:06.686Z,3.03
2022-11-02T11:23:34.695Z,2.77
2022-11-02T11:26:03.218Z,1.90
2022-11-02T11:28:33.418Z,1.90
2022-11-02T11:31:12.461Z,2.90
2022-11-02T11:33:49.632Z,1.77
2022-11-02T11:38:54.711Z,2.70
2022-11-02T11:41:22.645Z,2.03
2022-11-02T11:43:50.574Z,2.30
2022-11-02T11:46:18.505Z,2.80
2022-11-02T11:48:50.139Z,2.10
2022-11-02T11:51:32.705Z,2.57
2022-11-02T11:54:30.732Z,2.30
2022-11-02T11:56:59.207Z,2.13
2022-11-02T11:59:29.336Z,2.40
2022-11-02T12:02:00.783Z,2.87
2022-11-02T12:04:34.463Z,2.87
2022-11-02T12:08:04.915Z,1.90
2022-11-02T12:10:44.298Z,2.90
2022-11-02T12:13:19.894Z,2.13
2022-11-02T12:15:59.728Z,2.73
2022-11-02T12:18:35.002Z,3.10
2022-11-02T12:21:17.653Z,2.50
2022-11-02T12:24:04.261Z,2.63
2022-11-02T12:26:37.824Z,2.03
2022-11-02T12:29:13.155Z,2.67
2022-11-02T12:31:41.784Z,2.40
2022-11-02T12:34:21.176Z,2.47
2022-11-02T12:37:32.692Z,2.70
2022-11-02T12:39:53.453Z,2.77
2022-11-02T12:42:27.190Z,2.40
2022-11-02T12:45:10.733Z,2.80
2022-11-02T12:47:45.413Z,2.80
2022-11-02T12:50:17.143Z,2.47
2022-11-02T12:53:00.271Z,1.83
2022-11-02T12:55:33.046Z,2.47
2022-11-02T12:58:06.653Z,3.00
2022-11-02T13:00:37.564Z,2.17
2022-11-02T13:03:07.505Z,3.23
2022-11-02T13:05:37.201Z,2.70
2022-11-02T13:08:11.256Z,2.70
2022-11-02T13:10:41.795Z,2.30
2022-11-02T13:13:11.948Z,3.23
2022-11-02T13:15:39.809Z,3.53
2022-11-02T13:18:11.485Z,1.87
2022-11-02T13:20:42.035Z,2.07
2022-11-02T13:23:17.078Z,3.50
2022-11-02T13:25:47.961Z,3.20
2022-11-02T13:28:18.001Z,2.73
2022-11-02T13:30:45.852Z,2.93
2022-11-02T13:33:15.527Z,2.77
2022-11-02T13:35:43.546Z,2.87
2022-11-02T13:38:28.926Z,2.70
2022-11-02T13:41:04.344Z,2.50
2022-11-02T13:43:56.899Z,3.50
2022-11-02T13:46:30.979Z,2.63
2022-11-02T13:49:00.573Z,2.77
2022-11-02T13:51:32.529Z,3.47
2022-11-02T13:54:03.048Z,2.30
2022-11-02T13:56:31.046Z,1.97
2022-11-02T13:59:00.939Z,2.63
2022-11-02T14:01:29.515Z,3.20
2022-11-02T14:04:01.995Z,3.43
2022-11-02T14:06:31.558Z,2.57
2022-11-02T14:09:00.366Z,2.17
2022-11-02T14:11:47.507Z,2.60
2022-11-02T14:14:24.589Z,3.40
2022-11-02T14:16:59.089Z,2.57
2022-11-02T14:19:32.218Z,2.93
2022-11-02T14:22:13.845Z,2.23
2022-11-02T14:25:20.234Z,2.93
2022-11-02T14:27:49.547Z,2.00
2022-11-02T14:30:45.616Z,2.90
2022-11-02T14:34:01.191Z,2.97
2022-11-02T14:36:40.932Z,2.60
2022-11-02T14:39:14.807Z,2.83
2022-11-02T14:42:08.831Z,1.93
2022-11-02T14:44:46.646Z,2.53
2022-11-02T14:47:14.831Z,2.87
2022-11-02T14:49:48.588Z,3.97
2022-11-02T14:52:25.366Z,2.90
2022-11-02T14:54:54.667Z,2.63
2022-11-02T14:57:25.441Z,2.73
2022-11-02T14:59:55.372Z,3.07
2022-11-02T15:02:24.387Z,3.50
2022-11-02T15:04:53.092Z,3.37
2022-11-02T15:07:21.731Z,3.80
2022-11-02T15:09:54.328Z,3.23
2022-11-02T15:12:29.433Z,3.50
2022-11-02T15:15:03.097Z,4.50
2022-11-02T15:17:53.502Z,3.40
2022-11-02T15:20:27.470Z,4.27
2022-11-02T15:22:56.232Z,2.97
2022-11-02T15:25:27.094Z,5.10
2022-11-02T15:27:56.888Z,3.63
2022-11-02T15:30:28.521Z,4.10
2022-11-02T15:33:01.924Z,4.20
2022-11-02T15:35:31.928Z,4.10
2022-11-02T15:38:16.938Z,3.50
2022-11-02T15:40:48.387Z,4.27
2022-11-02T15:43:25.190Z,3.70
2022-11-02T15:46:00.366Z,3.50
2022-11-02T15:48:37.872Z,3.67
2022-11-02T15:51:09.348Z,3.63
2022-11-02T15:54:15.903Z,3.30
2022-11-02T15:56:48.118Z,3.30
2022-11-02T15:59:32.780Z,3.67
2022-11-02T16:02:18.788Z,3.80
2022-11-02T16:04:47.220Z,3.90
2022-11-02T16:07:17.394Z,3.90
2022-11-02T16:09:45.970Z,3.90
2022-11-02T16:12:16.755Z,4.03
2022-11-02T16:14:45.101Z,3.83
2022-11-02T16:17:24.699Z,4.20
2022-11-02T16:19:52.716Z,3.17
2022-11-02T16:22:27.386Z,3.47
2022-11-02T16:24:55.373Z,3.70
2022-11-02T16:27:23.547Z,3.70
2022-11-02T16:29:52.429Z,3.70
2022-11-02T16:32:20.339Z,3.77
2022-11-02T16:34:49.568Z,3.20
2022-11-02T16:37:18.800Z,3.73
2022-11-02T16:39:47.717Z,3.07
2022-11-02T16:42:17.934Z,3.30
2022-11-02T16:44:57.248Z,2.60
2022-11-02T16:47:36.481Z,2.70
2022-11-02T16:50:17.764Z,2.90
2022-11-02T16:52:47.903Z,2.67
2022-11-02T16:55:31.381Z,2.30
2022-11-02T16:57:59.501Z,3.03
2022-11-02T17:00:27.494Z,4.10
2022-11-02T17:02:55.421Z,6.67
2022-11-02T17:05:25.564Z,3.30
2022-11-02T17:07:58.562Z,7.73
2022-11-02T17:10:27.487Z,7.07
2022-11-02T17:12:55.389Z,7.13
2022-11-02T17:15:24.068Z,8.57
2022-11-02T17:17:51.972Z,7.47
2022-11-02T17:20:24.838Z,6.17
2022-11-02T17:22:57.135Z,6.20
2022-11-02T17:25:26.159Z,4.27
2022-11-02T17:27:54.769Z,6.20
2022-11-02T17:30:41.659Z,3.97
2022-11-02T17:33:10.170Z,6.37
2022-11-02T17:35:44.015Z,7.90
2022-11-02T17:38:11.910Z,8.43
2022-11-02T17:40:39.799Z,5.53
2022-11-02T17:43:06.693Z,5.90
2022-11-02T17:45:37.344Z,8.77
2022-11-02T17:48:06.242Z,5.57
2022-11-02T17:50:35.184Z,7.20
2022-11-02T17:53:05.101Z,5.40
2022-11-02T17:55:34.059Z,7.27
2022-11-02T17:58:02.038Z,6.23
2022-11-02T18:00:29.947Z,6.20
2022-11-02T18:02:58.875Z,5.13
2022-11-02T18:05:28.323Z,5.70
2022-11-02T18:07:56.524Z,5.07
2022-11-02T18:10:26.683Z,4.07
2022-11-02T18:12:54.612Z,5.20
2022-11-02T18:15:23.919Z,6.23
2022-11-02T18:17:51.752Z,4.73
2022-11-02T18:20:19.950Z,4.90
2022-11-02T18:22:47.867Z,3.93
2022-11-02T18:25:16.768Z,4.13
2022-11-02T18:27:46.101Z,4.00
2022-11-02T18:30:15.267Z,4.00
2022-11-02T18:32:44.071Z,4.23
2022-11-02T18:35:13.632Z,3.73
2022-11-02T18:37:41.620Z,4.27
2022-11-02T18:40:11.475Z,4.27
2022-11-02T18:42:39.503Z,4.40
2022-11-02T18:45:09.617Z,5.03
2022-11-02T18:47:37.892Z,4.57
2022-11-02T18:50:06.259Z,4.50
2022-11-02T18:52:34.166Z,4.10
2022-11-02T18:55:03.824Z,3.80
2022-11-02T18:57:31.716Z,4.17
2022-11-02T18:59:59.684Z,3.90
2022-11-02T19:02:29.271Z,3.97
2022-11-02T19:04:57.498Z,4.60
2022-11-02T19:07:42.879Z,3.77
2022-11-02T19:10:10.955Z,2.90
2022-11-02T19:12:38.864Z,4.00
2022-11-02T19:15:07.599Z,3.60
2022-11-02T19:17:36.967Z,4.10
2022-11-02T19:20:05.577Z,3.70
2022-11-02T19:22:33.447Z,3.83
2022-11-02T19:25:02.357Z,3.97
2022-11-02T19:27:30.238Z,4.57
2022-11-02T19:29:58.193Z,4.27
2022-11-02T19:32:26.113Z,4.57
2022-11-02T19:34:55.439Z,4.67
2022-11-02T19:37:23.303Z,4.70
2022-11-02T19:39:51.173Z,5.00
2022-11-02T19:42:19.064Z,4.37
2022-11-02T19:44:46.958Z,4.53
2022-11-02T19:47:14.907Z,5.40
2022-11-02T19:49:42.792Z,4.77
2022-11-02T19:52:12.150Z,4.57
2022-11-02T19:54:40.065Z,5.73
2022-11-02T19:57:08.018Z,4.80
2022-11-02T19:59:36.175Z,7.13
2022-11-02T20:02:04.099Z,5.33
2022-11-02T20:04:34.598Z,5.70
2022-11-02T20:07:05.982Z,4.43
2022-11-02T20:09:35.256Z,5.47
2022-11-02T20:12:04.891Z,5.53
2022-11-02T20:14:34.132Z,6.30
2022-11-02T20:17:25.281Z,5.07
2022-11-02T20:19:50.091Z,5.70
2022-11-02T20:22:18.770Z,5.07
2022-11-02T20:24:48.061Z,5.13
2022-11-02T20:27:16.040Z,5.87
2022-11-02T20:29:43.941Z,6.23
2022-11-02T20:32:12.603Z,6.87
2022-11-02T20:34:40.619Z,5.63
2022-11-02T20:37:08.492Z,5.43
2022-11-02T20:39:36.406Z,4.77
2022-11-02T20:42:05.902Z,5.27
2022-11-02T20:44:33.750Z,5.33
2022-11-02T20:47:01.637Z,5.70
2022-11-02T20:49:49.245Z,5.03
2022-11-02T20:52:24.547Z,5.67
2022-11-02T20:54:52.424Z,5.50
2022-11-02T20:57:22.467Z,5.77
2022-11-02T20:59:50.549Z,5.20
2022-11-02T21:02:18.486Z,5.93
2022-11-02T21:04:46.467Z,4.93
2022-11-02T21:07:14.442Z,5.20
2022-11-02T21:09:42.295Z,5.27
2022-11-02T21:12:28.551Z,4.77
2022-11-02T21:14:57.806Z,4.00
2022-11-02T21:17:26.125Z,4.87
2022-11-02T21:19:58.162Z,4.10
2022-11-02T21:22:36.025Z,4.40
2022-11-02T21:25:04.311Z,3.70
2022-11-02T21:27:32.204Z,3.90
2022-11-02T21:30:01.596Z,4.73
2022-11-02T21:32:29.578Z,3.80
2022-11-02T21:34:57.688Z,3.90
2022-11-02T21:37:25.637Z,3.97
2022-11-02T21:39:53.539Z,4.23
2022-11-02T21:42:21.431Z,4.27
2022-11-02T21:44:49.508Z,3.97
2022-11-02T21:47:18.841Z,3.60
2022-11-02T21:49:47.061Z,4.37
2022-11-02T21:52:15.012Z,4.20
2022-11-02T21:54:42.920Z,3.77
2022-11-02T21:57:10.769Z,4.23
2022-11-02T21:59:38.636Z,3.90
2022-11-02T22:02:05.617Z,4.03
2022-11-02T22:04:35.016Z,4.10
2022-11-02T22:07:02.898Z,4.17
2022-11-02T22:09:30.789Z,4.23
2022-11-02T22:12:16.177Z,4.60
2022-11-02T22:14:44.855Z,4.20
2022-11-02T22:17:22.004Z,3.77
2022-11-02T22:20:02.302Z,3.50
2022-11-02T22:22:30.314Z,4.50
2022-11-02T22:24:58.209Z,3.83
2022-11-02T22:27:27.707Z,4.03
2022-11-02T22:29:55.669Z,4.50
2022-11-02T22:32:23.551Z,3.53
2022-11-02T22:34:51.488Z,3.83
2022-11-02T22:37:38.698Z,5.43
2022-11-02T22:40:07.378Z,3.77
2022-11-02T22:42:39.709Z,4.00
2022-11-02T22:45:10.992Z,3.73
2022-11-02T22:47:38.835Z,3.80
2022-11-02T22:50:07.886Z,3.80
2022-11-02T22:52:37.240Z,4.13
2022-11-02T22:55:05.565Z,3.97
2022-11-02T22:57:33.459Z,3.60
2022-11-02T23:00:01.360Z,3.83
2022-11-02T23:02:29.385Z,3.23
2022-11-02T23:04:57.315Z,3.60
2022-11-02T23:07:25.186Z,2.83
2022-11-02T23:09:54.420Z,3.60
2022-11-02T23:12:21.289Z,4.20
2022-11-02T23:14:49.174Z,4.27
2022-11-02T23:17:17.035Z,3.30
2022-11-02T23:19:44.901Z,3.83
2022-11-02T23:22:33.095Z,3.33
2022-11-02T23:25:12.574Z,3.50
2022-11-02T23:27:55.768Z,3.77
2022-11-02T23:30:40.783Z,3.70
2022-11-02T23:33:09.051Z,3.93
2022-11-02T23:35:54.382Z,3.23
2022-11-02T23:38:22.241Z,3.60
2022-11-02T23:40:54.458Z,4.00
2022-11-02T23:43:22.346Z,3.83
2022-11-02T23:45:50.212Z,3.47
2022-11-02T23:48:18.137Z,3.40
2022-11-02T23:51:03.659Z,3.60
2022-11-02T23:53:49.066Z,3.63
2022-11-02T23:56:35.818Z,3.27
2022-11-02T23:59:12.643Z,3.80
